createdAt,value
2023-02-17T00:03:04.745Z,100784.53
2023-02-17T00:08:06.388Z,100791.19
2023-02-17T00:13:08.022Z,100793.63
2023-02-17T00:18:09.761Z,100790.63
2023-02-17T00:23:11.409Z,100786.81
2023-02-17T00:28:13.158Z,100780.84
2023-02-17T00:33:14.783Z,100778.03
2023-02-17T00:38:17.329Z,100774.72
2023-02-17T00:43:18.923Z,100776.03
2023-02-17T00:48:21.730Z,100771.41
2023-02-17T00:53:23.345Z,100762.88
2023-02-17T00:58:25.336Z,100767.59
2023-02-17T01:03:27.582Z,100762.03
2023-02-17T01:08:29.254Z,100766.16
2023-02-17T01:13:32.194Z,100767.28
2023-02-17T01:18:34.372Z,100751.94
2023-02-17T01:23:35.982Z,100755.66
2023-02-17T01:28:37.619Z,100753.75
2023-02-17T01:33:40.141Z,100743.75
2023-02-17T01:38:43.574Z,100734.56
2023-02-17T01:44:15.316Z,100743.38
2023-02-17T01:49:36.148Z,100740.69
2023-02-17T01:54:51.097Z,100739.09
2023-02-17T01:59:53.414Z,100732.72
2023-02-17T02:04:55.047Z,100729.19
2023-02-17T02:09:58.250Z,100704.38
2023-02-17T02:15:18.182Z,100690.19
2023-02-17T02:20:38.529Z,100674.19
2023-02-17T02:25:43.233Z,100665.25
2023-02-17T02:30:59.895Z,100657.28
2023-02-17T02:36:09.522Z,100639.84
2023-02-17T02:41:36.695Z,100634.66
2023-02-17T02:46:39.322Z,100625.75
2023-02-17T02:51:43.951Z,100611.44
2023-02-17T02:56:57.854Z,100587.44
2023-02-17T03:02:30.715Z,100603.19
2023-02-17T03:07:35.790Z,100616.47
2023-02-17T03:12:38.782Z,100597.34
2023-02-17T03:17:40.576Z,100600.91
2023-02-17T03:22:46.160Z,100598.63
2023-02-17T03:27:49.213Z,100605.16
2023-02-17T03:32:51.234Z,100591.41
2023-02-17T03:37:52.839Z,100585.75
2023-02-17T03:42:56.362Z,100594.25
2023-02-17T03:47:58.005Z,100596.25
2023-02-17T03:52:59.727Z,100591.72
2023-02-17T03:58:01.320Z,100588.56
2023-02-17T04:03:03.187Z,100590.56
2023-02-17T04:08:04.909Z,100589.00
2023-02-17T04:13:06.694Z,100578.59
2023-02-17T04:18:08.310Z,100585.00
2023-02-17T04:23:11.049Z,100583.97
2023-02-17T04:28:13.410Z,100590.81
2023-02-17T04:33:16.073Z,100580.28
2023-02-17T04:38:17.720Z,100567.59
2023-02-17T04:43:19.350Z,100561.25
2023-02-17T04:48:20.959Z,100563.81
2023-02-17T04:53:22.814Z,100555.28
2023-02-17T04:58:24.444Z,100538.16
2023-02-17T05:03:26.574Z,100544.31
2023-02-17T05:08:28.236Z,100537.81
2023-02-17T05:13:29.874Z,100533.16
2023-02-17T05:18:31.488Z,100543.88
2023-02-17T05:23:33.094Z,100548.66
2023-02-17T05:28:36.062Z,100530.56
2023-02-17T05:33:37.711Z,100537.25
2023-02-17T05:38:40.075Z,100526.06
2023-02-17T05:43:41.753Z,100536.69
2023-02-17T05:48:44.229Z,100530.66
2023-02-17T05:53:45.944Z,100524.13
2023-02-17T05:58:47.570Z,100521.88
2023-02-17T06:03:49.328Z,100504.34
2023-02-17T06:08:51.393Z,100513.84
2023-02-17T06:13:53.022Z,100513.28
2023-02-17T06:18:54.670Z,100510.34
2023-02-17T06:23:56.307Z,100511.91
2023-02-17T06:28:57.926Z,100519.97
2023-02-17T06:33:59.618Z,100515.03
2023-02-17T06:39:01.273Z,100530.34
2023-02-17T06:44:03.024Z,100500.78
2023-02-17T06:49:05.106Z,100520.91
2023-02-17T06:54:07.066Z,100517.81
2023-02-17T06:59:08.730Z,100502.38
2023-02-17T07:04:10.621Z,100514.00
2023-02-17T07:09:13.796Z,100506.22
2023-02-17T07:14:15.468Z,100512.59
2023-02-17T07:19:17.097Z,100508.75
2023-02-17T07:24:18.742Z,100507.34
2023-02-17T07:29:20.387Z,100516.41
2023-02-17T07:34:22.324Z,100514.44
2023-02-17T07:39:23.963Z,100502.53
2023-02-17T07:44:25.667Z,100497.00
2023-02-17T07:49:27.385Z,100495.44
2023-02-17T07:54:29.066Z,100479.00
2023-02-17T07:59:30.801Z,100468.66
2023-02-17T08:04:33.330Z,100473.03
2023-02-17T08:09:53.633Z,100490.38
2023-02-17T08:14:57.906Z,100495.63
2023-02-17T08:20:05.933Z,100493.63
2023-02-17T08:25:10.130Z,100505.13
2023-02-17T08:30:12.113Z,100514.19
2023-02-17T08:35:13.883Z,100521.28
2023-02-17T08:40:16.312Z,100505.13
2023-02-17T08:45:18.284Z,100500.59
2023-02-17T08:50:20.347Z,100509.09
2023-02-17T08:55:23.630Z,100497.31
2023-02-17T09:00:25.450Z,100486.13
2023-02-17T09:05:27.655Z,100486.09
2023-02-17T09:10:29.407Z,100466.94
2023-02-17T09:15:31.613Z,100461.66
2023-02-17T09:20:33.315Z,100452.28
2023-02-17T09:25:35.073Z,100449.66
2023-02-17T09:30:36.896Z,100450.31
2023-02-17T09:35:38.953Z,100465.88
2023-02-17T09:40:49.733Z,100444.31
2023-02-17T09:45:54.371Z,100431.75
2023-02-17T09:50:59.945Z,100425.44
2023-02-17T09:56:04.728Z,100419.38
2023-02-17T10:01:11.321Z,100402.09
2023-02-17T10:06:25.776Z,100410.81
2023-02-17T10:11:28.024Z,100391.28
2023-02-17T10:16:35.076Z,100402.41
2023-02-17T10:21:45.016Z,100399.81
2023-02-17T10:26:48.932Z,100387.47
2023-02-17T10:32:01.903Z,100364.28
2023-02-17T10:37:11.758Z,100345.44
2023-02-17T10:42:25.663Z,100340.78
2023-02-17T10:47:27.513Z,100325.78
2023-02-17T10:52:39.450Z,100313.19
2023-02-17T10:57:42.261Z,100314.56
2023-02-17T11:02:46.275Z,100298.03
2023-02-17T11:07:48.412Z,100290.75
2023-02-17T11:12:50.866Z,100279.25
2023-02-17T11:17:52.591Z,100268.13
2023-02-17T11:23:16.765Z,100256.09
2023-02-17T11:28:24.162Z,100237.66
2023-02-17T11:33:39.972Z,100222.25
2023-02-17T11:38:44.879Z,100213.50
2023-02-17T11:43:52.515Z,100220.16
2023-02-17T11:49:29.696Z,100211.59
2023-02-17T11:54:32.224Z,100205.41
2023-02-17T11:59:33.788Z,100176.03
2023-02-17T12:05:07.662Z,100175.88
2023-02-17T12:10:20.369Z,100168.44
2023-02-17T12:15:36.120Z,100163.59
2023-02-17T12:21:15.510Z,100127.06
2023-02-17T12:26:33.849Z,100134.22
2023-02-17T12:31:56.870Z,100130.34
2023-02-17T12:36:59.691Z,100109.34
2023-02-17T12:42:06.708Z,100100.91
2023-02-17T12:47:16.052Z,100098.84
2023-02-17T12:52:51.459Z,100100.19
2023-02-17T12:58:00.748Z,100095.16
2023-02-17T13:03:03.396Z,100077.69
2023-02-17T13:08:34.570Z,100083.94
2023-02-17T13:13:36.107Z,100071.75
2023-02-17T13:18:42.808Z,100082.59
2023-02-17T13:23:57.719Z,100062.25
2023-02-17T13:29:26.179Z,100072.94
2023-02-17T13:34:39.757Z,100039.56
2023-02-17T13:39:41.453Z,100031.44
2023-02-17T13:44:44.802Z,100027.75
2023-02-17T13:49:54.253Z,100023.38
2023-02-17T13:55:02.135Z,100020.66
2023-02-17T14:00:19.840Z,100010.31
2023-02-17T14:05:27.692Z,100005.22
2023-02-17T14:10:29.957Z,100022.47
2023-02-17T14:15:31.846Z,100000.63
2023-02-17T14:20:35.789Z,99987.91
2023-02-17T14:25:40.914Z,99976.19
2023-02-17T14:30:42.847Z,99966.50
2023-02-17T14:35:58.457Z,99977.00
2023-02-17T14:41:01.208Z,99974.47
2023-02-17T14:46:03.295Z,99958.56
2023-02-17T14:51:12.304Z,99963.00
2023-02-17T14:56:17.744Z,99955.22
2023-02-17T15:01:21.019Z,99915.81
2023-02-17T15:06:28.823Z,99927.47
2023-02-17T15:11:34.471Z,99948.97
2023-02-17T15:16:36.216Z,99939.81
2023-02-17T15:21:39.989Z,99958.28
2023-02-17T15:26:41.944Z,99980.50
2023-02-17T15:31:43.918Z,100013.84
2023-02-17T15:36:45.985Z,100015.03
2023-02-17T15:41:48.099Z,100016.25
2023-02-17T15:46:51.066Z,100003.91
2023-02-17T15:51:52.771Z,100007.66
2023-02-17T15:56:54.569Z,100004.09
2023-02-17T16:01:56.320Z,100031.34
2023-02-17T16:06:57.947Z,100025.41
2023-02-17T16:12:00.526Z,100014.97
2023-02-17T16:17:05.486Z,100007.47
2023-02-17T16:22:07.199Z,100002.25
2023-02-17T16:27:14.985Z,99991.09
2023-02-17T16:32:16.808Z,99989.56
2023-02-17T16:37:18.778Z,100009.34
2023-02-17T16:42:20.457Z,100010.69
2023-02-17T16:47:23.840Z,100014.91
2023-02-17T16:52:27.520Z,99994.13
2023-02-17T16:57:29.181Z,99996.66
2023-02-17T17:02:30.867Z,99998.88
2023-02-17T17:07:32.519Z,99982.13
2023-02-17T17:12:34.630Z,99986.69
2023-02-17T17:17:42.512Z,99996.13
2023-02-17T17:22:46.645Z,99996.97
2023-02-17T17:27:48.382Z,100000.84
2023-02-17T17:32:50.292Z,100024.38
2023-02-17T17:37:51.977Z,100026.38
2023-02-17T17:42:53.920Z,100030.09
2023-02-17T17:47:55.723Z,100042.94
2023-02-17T17:52:57.401Z,100054.06
2023-02-17T17:57:59.055Z,100046.63
2023-02-17T18:03:00.805Z,100059.69
2023-02-17T18:08:02.619Z,100065.28
2023-02-17T18:13:04.382Z,100084.41
2023-02-17T18:18:06.538Z,100099.50
2023-02-17T18:23:08.249Z,100126.13
2023-02-17T18:28:10.112Z,100127.44
2023-02-17T18:33:11.954Z,100137.09
2023-02-17T18:38:13.588Z,100149.94
2023-02-17T18:43:16.781Z,100168.69
2023-02-17T18:48:18.700Z,100178.69
2023-02-17T18:53:20.403Z,100175.03
2023-02-17T18:58:22.122Z,100187.00
2023-02-17T19:03:23.868Z,100179.50
2023-02-17T19:08:25.981Z,100172.72
2023-02-17T19:13:27.647Z,100172.19
2023-02-17T19:18:29.657Z,100181.81
2023-02-17T19:23:32.037Z,100165.78
2023-02-17T19:28:34.967Z,100181.88
2023-02-17T19:33:37.139Z,100191.66
2023-02-17T19:38:39.388Z,100190.81
2023-02-17T19:43:41.556Z,100185.09
2023-02-17T19:48:43.190Z,100198.44
2023-02-17T19:53:44.911Z,100204.44
2023-02-17T19:58:47.548Z,100196.38
2023-02-17T20:03:49.393Z,100205.66
2023-02-17T20:08:56.475Z,100200.94
2023-02-17T20:13:59.668Z,100197.09
2023-02-17T20:19:02.407Z,100207.47
2023-02-17T20:24:04.447Z,100211.03
2023-02-17T20:29:06.124Z,100205.63
2023-02-17T20:34:20.408Z,100221.84
2023-02-17T20:39:22.790Z,100222.31
2023-02-17T20:44:27.697Z,100230.91
2023-02-17T20:49:29.655Z,100222.09
2023-02-17T20:54:32.474Z,100231.81
2023-02-17T20:59:34.101Z,100241.56
2023-02-17T21:04:35.805Z,100235.19
2023-02-17T21:09:37.497Z,100238.50
2023-02-17T21:14:39.165Z,100253.94
2023-02-17T21:19:40.869Z,100260.88
2023-02-17T21:24:42.582Z,100266.50
2023-02-17T21:29:44.284Z,100270.06
2023-02-17T21:34:45.943Z,100281.56
2023-02-17T21:39:47.632Z,100277.16
2023-02-17T21:44:53.665Z,100296.66
2023-02-17T21:49:55.416Z,100304.28
2023-02-17T21:54:57.051Z,100335.69
2023-02-17T21:59:58.813Z,100355.69
2023-02-17T22:05:00.482Z,100386.84
2023-02-17T22:10:02.558Z,100402.84
2023-02-17T22:15:05.804Z,100418.59
2023-02-17T22:20:08.252Z,100407.13
2023-02-17T22:25:10.000Z,100426.78
2023-02-17T22:30:12.276Z,100418.69
2023-02-17T22:35:14.128Z,100435.13
2023-02-17T22:40:15.848Z,100432.28
2023-02-17T22:45:17.684Z,100418.66
2023-02-17T22:50:19.316Z,100434.38
2023-02-17T22:55:21.166Z,100428.72
2023-02-17T23:00:23.080Z,100436.75
2023-02-17T23:05:24.779Z,100443.72
2023-02-17T23:10:26.421Z,100446.00
2023-02-17T23:15:40.072Z,100458.59
2023-02-17T23:20:43.675Z,100469.81
2023-02-17T23:25:51.132Z,100470.25
2023-02-17T23:30:53.265Z,100472.09
2023-02-17T23:35:54.949Z,100474.78
2023-02-17T23:40:56.899Z,100463.59
2023-02-17T23:45:59.746Z,100486.28
2023-02-17T23:51:02.948Z,100490.53
2023-02-17T23:56:07.874Z,100499.03
